createdAt,value
2023-04-23T00:01:41.495Z,58.90
2023-04-23T00:04:10.541Z,58.90
2023-04-23T00:06:39.498Z,58.90
2023-04-23T00:09:08.666Z,58.90
2023-04-23T00:11:37.342Z,58.90
2023-04-23T00:14:07.385Z,58.90
2023-04-23T00:16:36.132Z,58.90
2023-04-23T00:19:04.423Z,58.90
2023-04-23T00:21:32.473Z,58.90
2023-04-23T00:24:00.557Z,58.90
2023-04-23T00:26:28.619Z,58.90
2023-04-23T00:28:56.666Z,58.90
2023-04-23T00:31:27.303Z,58.80
2023-04-23T00:33:55.997Z,58.80
2023-04-23T00:36:24.213Z,58.90
2023-04-23T00:38:52.334Z,58.90
2023-04-23T00:41:21.098Z,58.90
2023-04-23T00:43:52.775Z,59.00
2023-04-23T00:46:21.169Z,58.90
2023-04-23T00:48:51.903Z,58.90
2023-04-23T00:51:19.970Z,58.80
2023-04-23T00:53:48.015Z,58.80
2023-04-23T00:56:16.550Z,58.90
2023-04-23T00:58:45.435Z,58.90
2023-04-23T01:01:14.134Z,58.90
2023-04-23T01:03:44.190Z,58.90
2023-04-23T01:06:13.764Z,58.90
2023-04-23T01:08:44.143Z,58.90
2023-04-23T01:11:14.556Z,58.80
2023-04-23T01:13:43.338Z,58.80
2023-04-23T01:16:11.883Z,58.80
2023-04-23T01:18:41.065Z,58.80
2023-04-23T01:21:11.035Z,58.80
2023-04-23T01:23:40.976Z,58.80
2023-04-23T01:26:10.754Z,58.80
2023-04-23T01:28:39.199Z,58.70
2023-04-23T01:31:07.954Z,58.70
2023-04-23T01:33:36.621Z,58.70
2023-04-23T01:36:05.641Z,58.70
2023-04-23T01:38:35.298Z,58.70
2023-04-23T01:41:05.319Z,58.70
2023-04-23T01:43:33.705Z,58.70
2023-04-23T01:46:01.985Z,58.60
2023-04-23T01:48:30.237Z,58.70
2023-04-23T01:50:58.638Z,58.60
2023-04-23T01:53:26.682Z,58.50
2023-04-23T01:55:56.580Z,58.50
2023-04-23T01:58:26.148Z,58.50
2023-04-23T02:00:54.207Z,58.50
2023-04-23T02:03:22.726Z,58.50
2023-04-23T02:05:53.058Z,58.50
2023-04-23T02:08:21.156Z,58.40
2023-04-23T02:10:49.206Z,58.40
2023-04-23T02:13:17.241Z,58.40
2023-04-23T02:15:46.815Z,58.40
2023-04-23T02:18:14.887Z,58.40
2023-04-23T02:20:42.972Z,58.30
2023-04-23T02:23:12.115Z,58.30
2023-04-23T02:25:40.203Z,58.30
2023-04-23T02:28:08.580Z,58.30
2023-04-23T02:30:37.136Z,58.30
2023-04-23T02:33:06.727Z,58.30
2023-04-23T02:35:34.803Z,58.30
2023-04-23T02:38:02.829Z,58.30
2023-04-23T02:40:31.406Z,58.30
2023-04-23T02:42:59.482Z,58.30
2023-04-23T02:45:27.711Z,58.40
2023-04-23T02:47:55.871Z,59.00
2023-04-23T02:50:25.480Z,58.40
2023-04-23T02:52:53.548Z,58.60
2023-04-23T02:55:21.591Z,58.60
2023-04-23T02:57:49.667Z,58.70
2023-04-23T03:00:18.198Z,58.80
2023-04-23T03:02:46.641Z,58.70
2023-04-23T03:05:14.904Z,58.80
2023-04-23T03:07:44.351Z,58.90
2023-04-23T03:10:12.568Z,58.90
2023-04-23T03:12:40.663Z,59.00
2023-04-23T03:15:09.172Z,59.00
2023-04-23T03:17:38.428Z,58.90
2023-04-23T03:20:08.773Z,59.00
2023-04-23T03:22:37.158Z,59.00
2023-04-23T03:25:08.688Z,59.00
2023-04-23T03:27:39.043Z,59.00
2023-04-23T03:30:09.954Z,59.20
2023-04-23T03:32:38.348Z,59.20
2023-04-23T03:35:07.214Z,59.40
2023-04-23T03:37:35.249Z,59.40
2023-04-23T03:40:07.778Z,59.50
2023-04-23T03:42:37.354Z,59.50
2023-04-23T03:45:06.213Z,59.60
2023-04-23T03:47:34.343Z,59.70
2023-04-23T03:50:02.450Z,59.70
2023-04-23T03:52:30.607Z,59.70
2023-04-23T03:54:58.714Z,59.90
2023-04-23T03:57:26.836Z,59.90
2023-04-23T03:59:56.554Z,59.90
2023-04-23T04:02:24.725Z,59.90
2023-04-23T04:04:55.042Z,59.90
2023-04-23T04:07:23.356Z,59.80
2023-04-23T04:09:51.406Z,59.80
2023-04-23T04:12:19.491Z,59.80
2023-04-23T04:14:47.520Z,59.70
2023-04-23T04:17:16.963Z,59.70
2023-04-23T04:19:45.038Z,59.70
2023-04-23T04:22:13.345Z,59.70
2023-04-23T04:24:42.428Z,59.80
2023-04-23T04:27:11.699Z,59.70
2023-04-23T04:29:40.848Z,59.70
2023-04-23T04:32:09.652Z,59.70
2023-04-23T04:34:40.010Z,59.70
2023-04-23T04:37:10.147Z,59.60
2023-04-23T04:39:38.232Z,59.60
2023-04-23T04:42:07.332Z,59.60
2023-04-23T04:44:37.665Z,59.50
2023-04-23T04:47:07.111Z,59.50
2023-04-23T04:49:36.024Z,59.50
2023-04-23T04:52:05.514Z,59.50
2023-04-23T04:54:33.561Z,59.50
2023-04-23T04:57:02.409Z,59.50
2023-04-23T04:59:30.487Z,59.50
2023-04-23T05:01:59.670Z,59.60
2023-04-23T05:04:27.998Z,59.60
2023-04-23T05:06:56.453Z,59.60
2023-04-23T05:09:26.713Z,59.70
2023-04-23T05:11:54.835Z,59.70
2023-04-23T05:14:22.871Z,59.70
2023-04-23T05:16:51.203Z,59.70
2023-04-23T05:19:19.410Z,59.70
2023-04-23T05:21:47.534Z,59.80
2023-04-23T05:24:15.588Z,59.70
2023-04-23T05:26:45.003Z,59.80
2023-04-23T05:29:17.832Z,59.90
2023-04-23T05:31:46.399Z,59.80
2023-04-23T05:34:14.472Z,59.80
2023-04-23T05:36:42.551Z,59.80
2023-04-23T05:39:10.757Z,59.90
2023-04-23T05:41:38.822Z,59.90
2023-04-23T05:44:08.257Z,60.50
2023-04-23T05:46:36.654Z,59.80
2023-04-23T05:49:04.850Z,59.80
2023-04-23T05:51:32.894Z,59.70
2023-04-23T05:54:00.946Z,59.70
2023-04-23T05:56:29.075Z,59.60
2023-04-23T05:58:57.107Z,59.50
2023-04-23T06:01:26.558Z,59.40
2023-04-23T06:03:54.761Z,59.30
2023-04-23T06:06:23.141Z,59.40
2023-04-23T06:08:51.920Z,59.40
2023-04-23T06:11:20.034Z,59.30
2023-04-23T06:13:48.192Z,59.20
2023-04-23T06:16:16.376Z,59.20
2023-04-23T06:18:45.940Z,59.10
2023-04-23T06:21:14.552Z,59.00
2023-04-23T06:23:42.615Z,58.90
2023-04-23T06:26:10.721Z,59.00
2023-04-23T06:28:39.520Z,58.90
2023-04-23T06:31:08.740Z,58.80
2023-04-23T06:33:37.538Z,58.70
2023-04-23T06:36:09.505Z,58.60
2023-04-23T06:38:37.579Z,58.40
2023-04-23T06:41:06.097Z,58.40
2023-04-23T06:43:34.769Z,58.20
2023-04-23T06:46:02.825Z,57.90
2023-04-23T06:48:32.317Z,57.80
2023-04-23T06:51:00.435Z,57.60
2023-04-23T06:53:30.131Z,57.60
2023-04-23T06:55:58.175Z,57.40
2023-04-23T06:58:31.208Z,57.40
2023-04-23T07:01:00.995Z,57.40
2023-04-23T07:03:29.315Z,57.30
2023-04-23T07:05:57.400Z,57.20
2023-04-23T07:08:25.482Z,57.20
2023-04-23T07:10:54.899Z,57.50
2023-04-23T07:13:24.055Z,57.00
2023-04-23T07:15:52.124Z,57.00
2023-04-23T07:18:20.186Z,57.00
2023-04-23T07:20:48.258Z,56.70
2023-04-23T07:23:16.293Z,56.50
2023-04-23T07:25:44.389Z,56.20
2023-04-23T07:28:13.801Z,55.80
2023-04-23T07:30:41.912Z,55.30
2023-04-23T07:33:10.043Z,55.00
2023-04-23T07:35:38.114Z,54.80
2023-04-23T07:38:06.198Z,54.50
2023-04-23T07:40:34.330Z,54.40
2023-04-23T07:43:02.513Z,54.30
2023-04-23T07:45:32.053Z,54.00
2023-04-23T07:48:01.713Z,53.70
2023-04-23T07:50:31.086Z,53.70
2023-04-23T07:52:59.245Z,53.60
2023-04-23T07:55:27.270Z,53.50
2023-04-23T07:57:55.332Z,53.50
2023-04-23T08:00:23.537Z,53.50
2023-04-23T08:02:54.937Z,53.50
2023-04-23T08:05:23.367Z,53.50
2023-04-23T08:07:51.497Z,53.60
2023-04-23T08:10:19.557Z,53.50
2023-04-23T08:12:47.841Z,53.50
2023-04-23T08:15:16.199Z,53.30
2023-04-23T08:17:44.315Z,53.20
2023-04-23T08:20:13.978Z,53.10
2023-04-23T08:22:42.163Z,52.90
2023-04-23T08:25:11.150Z,52.90
2023-04-23T08:27:39.306Z,53.10
2023-04-23T08:30:08.681Z,53.10
2023-04-23T08:32:36.806Z,53.10
2023-04-23T08:35:05.538Z,53.00
2023-04-23T08:37:35.151Z,53.50
2023-04-23T08:40:03.287Z,53.00
2023-04-23T08:42:39.037Z,53.10
2023-04-23T08:45:08.275Z,53.20
2023-04-23T08:47:37.150Z,53.10
2023-04-23T08:50:06.694Z,52.90
2023-04-23T08:52:39.934Z,52.70
2023-04-23T08:55:11.188Z,52.80
2023-04-23T08:57:41.342Z,52.80
2023-04-23T09:00:11.722Z,52.50
2023-04-23T09:02:42.219Z,52.20
2023-04-23T09:05:11.343Z,52.50
2023-04-23T09:07:41.636Z,51.80
2023-04-23T09:10:12.882Z,51.90
2023-04-23T09:12:45.030Z,52.30
2023-04-23T09:15:14.460Z,52.60
2023-04-23T09:17:45.153Z,52.50
2023-04-23T09:20:14.424Z,52.60
2023-04-23T09:22:47.431Z,52.40
2023-04-23T09:25:17.725Z,53.00
2023-04-23T09:27:46.875Z,52.20
2023-04-23T09:30:15.777Z,52.00
2023-04-23T09:32:46.082Z,51.90
2023-04-23T09:35:15.910Z,51.90
2023-04-23T09:37:48.651Z,51.80
2023-04-23T09:40:18.403Z,51.60
2023-04-23T09:42:50.907Z,51.50
2023-04-23T09:45:19.358Z,51.20
2023-04-23T09:47:52.448Z,50.90
2023-04-23T09:50:21.180Z,50.50
2023-04-23T09:52:57.129Z,50.60
2023-04-23T09:55:35.543Z,50.40
2023-04-23T09:58:05.437Z,50.30
2023-04-23T10:00:38.162Z,50.20
2023-04-23T10:03:08.866Z,49.80
2023-04-23T10:05:59.834Z,49.50
2023-04-23T10:08:31.918Z,49.10
2023-04-23T10:11:06.617Z,48.70
2023-04-23T10:13:43.318Z,48.20
2023-04-23T10:16:22.399Z,47.70
2023-04-23T10:18:55.210Z,47.30
2023-04-23T10:21:33.936Z,46.90
2023-04-23T10:24:07.304Z,46.50
2023-04-23T10:26:39.217Z,46.30
2023-04-23T10:29:10.192Z,46.00
2023-04-23T10:31:38.643Z,45.60
2023-04-23T10:34:08.110Z,45.20
2023-04-23T10:36:36.225Z,44.80
2023-04-23T10:39:09.342Z,44.40
2023-04-23T10:41:39.623Z,43.90
2023-04-23T10:44:12.227Z,43.70
2023-04-23T10:46:40.436Z,43.70
2023-04-23T10:49:14.272Z,43.50
2023-04-23T10:54:17.800Z,42.70
2023-04-23T10:56:46.065Z,42.20
2023-04-23T11:01:50.858Z,40.90
2023-04-23T11:04:23.565Z,41.30
2023-04-23T11:06:54.878Z,41.30
2023-04-23T11:09:39.193Z,41.40
2023-04-23T11:12:09.214Z,41.00
2023-04-23T11:14:39.177Z,40.50
2023-04-23T11:17:07.439Z,40.50
2023-04-23T11:24:42.427Z,38.60
2023-04-23T11:27:12.048Z,38.70
2023-04-23T11:29:42.005Z,38.50
2023-04-23T11:32:12.946Z,38.20
2023-04-23T11:34:41.871Z,38.10
2023-04-23T11:37:12.207Z,38.10
2023-04-23T11:39:42.916Z,37.60
2023-04-23T11:42:11.710Z,36.80
2023-04-23T11:44:41.136Z,37.30
2023-04-23T11:49:40.070Z,36.40
2023-04-23T11:52:08.415Z,36.40
2023-04-23T11:54:36.616Z,36.20
2023-04-23T11:57:06.747Z,35.40
2023-04-23T11:59:34.829Z,35.80
2023-04-23T12:02:02.933Z,35.50
2023-04-23T12:04:32.859Z,35.10
2023-04-23T12:07:04.314Z,34.80
2023-04-23T12:09:38.300Z,35.20
2023-04-23T12:12:07.866Z,34.40
2023-04-23T12:14:35.912Z,34.10
2023-04-23T12:17:11.646Z,34.10
2023-04-23T12:19:40.696Z,34.00
2023-04-23T12:22:08.988Z,34.10
2023-04-23T12:24:48.567Z,33.90
2023-04-23T12:27:21.976Z,33.80
2023-04-23T12:29:50.899Z,34.00
2023-04-23T12:32:22.881Z,34.10
2023-04-23T12:34:54.983Z,34.40
2023-04-23T12:37:26.780Z,34.50
2023-04-23T12:39:56.667Z,34.80
2023-04-23T12:42:26.765Z,35.00
2023-04-23T12:44:55.832Z,35.20
2023-04-23T12:47:24.210Z,35.40
2023-04-23T12:49:53.500Z,35.80
2023-04-23T12:52:22.349Z,36.20
2023-04-23T12:54:52.300Z,36.50
2023-04-23T12:57:23.298Z,36.70
2023-04-23T12:59:54.799Z,37.00
2023-04-23T13:02:23.805Z,37.20
2023-04-23T13:04:52.012Z,37.70
2023-04-23T13:07:20.056Z,37.90
2023-04-23T13:09:48.153Z,38.40
2023-04-23T13:12:16.315Z,38.60
2023-04-23T13:14:44.368Z,38.70
2023-04-23T13:17:14.181Z,38.80
2023-04-23T13:19:42.369Z,38.90
2023-04-23T13:22:10.856Z,38.90
2023-04-23T13:24:38.920Z,39.10
2023-04-23T13:27:07.035Z,39.30
2023-04-23T13:29:35.291Z,39.20
2023-04-23T13:32:03.507Z,39.30
2023-04-23T13:34:34.060Z,39.40
2023-04-23T13:37:05.551Z,39.40
2023-04-23T13:39:33.737Z,39.80
2023-04-23T13:42:09.072Z,40.40
2023-04-23T13:44:37.841Z,39.80
2023-04-23T13:47:06.075Z,40.00
2023-04-23T13:49:35.988Z,40.30
2023-04-23T13:52:07.147Z,40.40
2023-04-23T13:54:36.113Z,40.40
2023-04-23T13:57:04.390Z,40.50
2023-04-23T13:59:32.508Z,40.50
2023-04-23T14:02:00.930Z,40.70
2023-04-23T14:04:29.017Z,40.70
2023-04-23T14:06:58.470Z,40.30
2023-04-23T14:09:26.539Z,39.80
2023-04-23T14:11:54.658Z,39.40
2023-04-23T14:14:22.749Z,38.90
2023-04-23T14:16:51.054Z,38.30
2023-04-23T14:19:19.253Z,38.00
2023-04-23T14:21:47.345Z,37.60
2023-04-23T14:24:24.652Z,37.40
2023-04-23T14:26:52.704Z,36.70
2023-04-23T14:29:25.900Z,36.50
2023-04-23T14:31:54.132Z,36.40
2023-04-23T14:34:22.383Z,36.30
2023-04-23T14:36:52.745Z,35.90
2023-04-23T14:39:23.729Z,35.60
2023-04-23T14:41:51.828Z,35.50
2023-04-23T14:44:20.198Z,35.40
2023-04-23T14:46:49.959Z,35.00
2023-04-23T14:49:18.061Z,34.90
2023-04-23T14:51:46.165Z,34.80
2023-04-23T14:54:14.620Z,34.70
2023-04-23T14:56:44.133Z,34.50
2023-04-23T14:59:12.190Z,34.50
2023-04-23T15:01:40.467Z,34.80
2023-04-23T15:04:08.655Z,34.70
2023-04-23T15:06:36.816Z,34.50
2023-04-23T15:09:05.148Z,34.40
2023-04-23T15:11:33.562Z,34.30
2023-04-23T15:14:08.947Z,34.20
2023-04-23T15:16:48.673Z,34.00
2023-04-23T15:19:57.807Z,34.10
2023-04-23T15:22:26.211Z,34.10
2023-04-23T15:24:54.258Z,34.20
2023-04-23T15:27:25.017Z,34.10
2023-04-23T15:29:54.443Z,34.00
2023-04-23T15:32:22.551Z,34.00
2023-04-23T15:34:50.672Z,34.10
2023-04-23T15:37:20.996Z,34.40
2023-04-23T15:39:49.029Z,34.50
2023-04-23T15:42:18.251Z,34.60
2023-04-23T15:44:50.472Z,34.70
2023-04-23T15:47:22.052Z,34.50
2023-04-23T15:49:50.489Z,34.60
2023-04-23T15:52:19.053Z,34.70
2023-04-23T15:54:47.172Z,34.60
2023-04-23T15:57:15.219Z,34.80
2023-04-23T15:59:43.755Z,34.90
2023-04-23T16:02:12.119Z,34.90
2023-04-23T16:04:42.313Z,34.90
2023-04-23T16:07:10.769Z,35.10
2023-04-23T16:09:38.911Z,35.10
2023-04-23T16:12:08.902Z,35.30
2023-04-23T16:14:38.300Z,35.40
2023-04-23T16:17:06.480Z,35.60
2023-04-23T16:19:34.760Z,35.80
2023-04-23T16:22:04.217Z,35.80
2023-04-23T16:24:32.268Z,36.00
2023-04-23T16:27:02.354Z,36.40
2023-04-23T16:29:30.615Z,36.50
2023-04-23T16:31:58.843Z,36.60
2023-04-23T16:34:26.952Z,36.60
2023-04-23T16:36:55.252Z,36.80
2023-04-23T16:39:24.926Z,36.80
2023-04-23T16:41:52.964Z,37.00
2023-04-23T16:44:21.006Z,37.10
2023-04-23T16:46:49.137Z,37.20
2023-04-23T16:49:17.262Z,37.10
2023-04-23T16:51:45.335Z,37.10
2023-04-23T16:54:13.543Z,37.10
2023-04-23T16:56:45.303Z,37.20
2023-04-23T16:59:15.271Z,37.20
2023-04-23T17:01:43.327Z,37.20
2023-04-23T17:04:11.556Z,37.10
2023-04-23T17:06:39.771Z,37.00
2023-04-23T17:09:08.779Z,37.10
2023-04-23T17:11:36.916Z,37.10
2023-04-23T17:14:06.393Z,37.00
2023-04-23T17:16:34.528Z,36.90
2023-04-23T17:19:03.065Z,37.00
2023-04-23T17:21:32.371Z,36.90
2023-04-23T17:24:00.489Z,36.80
2023-04-23T17:26:28.574Z,36.80
2023-04-23T17:28:56.680Z,36.60
2023-04-23T17:31:26.133Z,36.40
2023-04-23T17:33:55.442Z,36.20
2023-04-23T17:36:23.494Z,36.20
2023-04-23T17:38:51.601Z,36.00
2023-04-23T17:41:19.691Z,36.10
2023-04-23T17:43:49.246Z,36.10
2023-04-23T17:46:17.479Z,35.70
2023-04-23T17:48:53.181Z,35.60
2023-04-23T17:51:23.132Z,35.40
2023-04-23T17:53:51.975Z,35.40
2023-04-23T17:56:20.169Z,35.30
2023-04-23T17:58:48.460Z,35.10
2023-04-23T18:01:17.627Z,34.90
2023-04-23T18:03:48.049Z,35.00
2023-04-23T18:06:16.323Z,35.00
2023-04-23T18:08:44.500Z,35.00
2023-04-23T18:11:12.626Z,35.00
2023-04-23T18:13:44.689Z,34.90
2023-04-23T18:16:12.867Z,34.90
2023-04-23T18:18:40.925Z,34.90
2023-04-23T18:21:10.412Z,34.90
2023-04-23T18:23:39.666Z,34.80
2023-04-23T18:26:07.756Z,34.70
2023-04-23T18:28:37.182Z,34.70
2023-04-23T18:31:05.537Z,34.80
2023-04-23T18:33:38.758Z,34.70
2023-04-23T18:36:22.214Z,34.80
2023-04-23T18:38:50.630Z,34.80
2023-04-23T18:41:18.702Z,35.00
2023-04-23T18:43:46.817Z,35.00
2023-04-23T18:46:16.188Z,35.10
2023-04-23T18:48:52.323Z,35.10
2023-04-23T18:51:27.579Z,35.20
2023-04-23T18:53:55.683Z,35.10
2023-04-23T18:56:25.086Z,35.20
2023-04-23T18:58:53.216Z,34.90
2023-04-23T19:01:21.653Z,34.70
2023-04-23T19:03:49.883Z,34.60
2023-04-23T19:06:18.047Z,34.60
2023-04-23T19:08:47.485Z,34.70
2023-04-23T19:11:15.720Z,34.70
2023-04-23T19:13:43.766Z,34.70
2023-04-23T19:16:11.979Z,34.50
2023-04-23T19:18:40.309Z,34.60
2023-04-23T19:21:08.677Z,34.60
2023-04-23T19:23:36.835Z,34.70
2023-04-23T19:26:06.340Z,34.60
2023-04-23T19:28:34.413Z,34.50
2023-04-23T19:31:04.168Z,34.60
2023-04-23T19:33:32.288Z,34.70
2023-04-23T19:36:00.393Z,34.70
2023-04-23T19:38:28.731Z,34.80
2023-04-23T19:40:56.913Z,35.00
2023-04-23T19:43:26.381Z,35.10
2023-04-23T19:45:54.759Z,34.90
2023-04-23T19:48:22.837Z,35.00
2023-04-23T19:50:51.188Z,35.00
2023-04-23T19:53:19.420Z,34.90
2023-04-23T19:55:47.463Z,34.90
2023-04-23T19:58:17.669Z,34.90
2023-04-23T20:00:47.211Z,35.00
2023-04-23T20:03:16.069Z,35.00
2023-04-23T20:05:46.093Z,35.20
2023-04-23T20:08:25.500Z,35.20
2023-04-23T20:10:54.054Z,35.30
2023-04-23T20:13:23.649Z,35.40
2023-04-23T20:15:55.109Z,35.40
2023-04-23T20:18:25.519Z,35.60
2023-04-23T20:20:53.929Z,35.70
2023-04-23T20:23:22.034Z,35.80
2023-04-23T20:25:50.108Z,35.80
2023-04-23T20:28:18.264Z,35.80
2023-04-23T20:30:46.333Z,35.90
2023-04-23T20:33:18.685Z,35.90
2023-04-23T20:35:47.719Z,35.90
2023-04-23T20:38:19.088Z,35.80
2023-04-23T20:40:47.333Z,35.70
2023-04-23T20:43:15.553Z,35.70
2023-04-23T20:45:44.054Z,35.70
2023-04-23T20:48:12.256Z,35.80
2023-04-23T20:50:41.754Z,36.00
2023-04-23T20:53:09.800Z,36.00
2023-04-23T20:55:38.006Z,36.00
2023-04-23T20:58:06.134Z,36.20
2023-04-23T21:00:34.984Z,36.30
2023-04-23T21:03:03.274Z,36.30
2023-04-23T21:05:31.500Z,36.40
2023-04-23T21:08:00.969Z,36.40
2023-04-23T21:10:29.057Z,36.50
2023-04-23T21:12:57.185Z,36.40
2023-04-23T21:15:25.387Z,36.40
2023-04-23T21:17:53.546Z,36.50
2023-04-23T21:20:21.936Z,36.50
2023-04-23T21:22:50.076Z,36.50
2023-04-23T21:25:19.747Z,36.50
2023-04-23T21:27:48.858Z,36.50
2023-04-23T21:30:24.883Z,36.50
2023-04-23T21:32:52.999Z,36.60
2023-04-23T21:35:21.142Z,36.70
2023-04-23T21:37:49.272Z,36.80
2023-04-23T21:40:17.511Z,36.80
2023-04-23T21:42:47.648Z,36.90
2023-04-23T21:45:16.909Z,37.10
2023-04-23T21:47:45.015Z,37.30
2023-04-23T21:50:13.432Z,37.50
2023-04-23T21:52:43.257Z,37.50
2023-04-23T21:55:12.248Z,37.70
2023-04-23T21:57:40.517Z,38.00
2023-04-23T22:00:13.934Z,38.10
2023-04-23T22:02:46.404Z,38.30
2023-04-23T22:05:16.999Z,38.40
2023-04-23T22:07:45.306Z,38.60
2023-04-23T22:10:15.948Z,38.80
2023-04-23T22:12:44.703Z,39.00
2023-04-23T22:15:15.880Z,39.10
2023-04-23T22:17:46.316Z,39.30
2023-04-23T22:20:15.935Z,39.50
2023-04-23T22:22:44.426Z,39.70
2023-04-23T22:25:13.078Z,39.70
2023-04-23T22:27:42.211Z,39.90
2023-04-23T22:30:13.097Z,40.10
2023-04-23T22:32:41.520Z,40.20
2023-04-23T22:35:10.600Z,40.30
2023-04-23T22:37:38.770Z,40.50
2023-04-23T22:40:09.489Z,40.60
2023-04-23T22:42:37.802Z,40.80
2023-04-23T22:45:07.169Z,41.00
2023-04-23T22:47:37.047Z,41.00
2023-04-23T22:50:07.744Z,41.20
2023-04-23T22:52:35.810Z,41.40
2023-04-23T22:55:03.898Z,41.40
2023-04-23T22:57:32.090Z,41.60
2023-04-23T23:00:01.089Z,41.80
2023-04-23T23:02:29.492Z,41.90
2023-04-23T23:04:59.042Z,42.10
2023-04-23T23:07:27.097Z,42.10
2023-04-23T23:09:55.177Z,42.30
2023-04-23T23:12:23.241Z,42.40
2023-04-23T23:14:51.295Z,42.50
2023-04-23T23:17:19.446Z,42.70
2023-04-23T23:19:47.763Z,42.80
2023-04-23T23:22:17.194Z,42.90
2023-04-23T23:24:45.277Z,43.10
2023-04-23T23:27:13.324Z,43.30
2023-04-23T23:29:41.762Z,43.40
2023-04-23T23:32:10.109Z,43.60
2023-04-23T23:34:38.231Z,43.80
2023-04-23T23:37:06.350Z,43.90
2023-04-23T23:39:35.829Z,44.10
2023-04-23T23:42:03.910Z,44.30
2023-04-23T23:44:31.958Z,44.50
2023-04-23T23:47:00.351Z,44.70
2023-04-23T23:49:28.572Z,44.70
2023-04-23T23:51:56.650Z,44.90
2023-04-23T23:54:24.790Z,45.00
2023-04-23T23:56:55.630Z,45.30
2023-04-23T23:59:23.685Z,45.40
